Time;durP1;ratioP1;P1;durP2;ratioP2;P2;SDS_P1;SDS_P2;PMS_P1;PMS_P2;Temp;Humidity;BMP_temperature;BMP_pressure;BME280_temperature;BME280_humidity;BME280_pressure;Samples;Min_cycle;Max_cycle;Signal;HPM_P1;HPM_P2
2021/05/09 00:09:45;;;;;;;30.23;20.60;;;;;;;2.20;67.55;99847.50;513796;1104;115498;-63
2021/05/09 00:19:49;;;;;;;26.43;16.67;;;;;;;2.26;67.49;99836.97;513825;1104;115786;-63
2021/05/09 00:29:54;;;;;;;22.50;16.47;;;;;;;2.40;67.67;99826.25;525961;1104;116027;-62
2021/05/09 00:39:58;;;;;;;19.07;15.57;;;;;;;2.49;67.40;99826.01;514386;1104;115903;-61
2021/05/09 00:50:03;;;;;;;22.05;16.25;;;;;;;2.52;67.50;99825.92;529318;1104;115820;-61
2021/05/09 01:00:11;;;;;;;21.03;16.70;;;;;;;2.57;67.64;99818.02;525365;1096;116438;-61
2021/05/09 01:10:14;;;;;;;;;;;;;;;2.59;67.76;99812.77;518115;1104;115864;-61
2021/05/09 01:20:33;;;;;;;22.40;13.20;;;;;;;2.59;67.88;99807.59;521722;1104;102025;-61
2021/05/09 01:30:37;;;;;;;22.37;14.77;;;;;;;2.58;68.30;99800.70;529285;1104;115771;-61
2021/05/09 01:40:42;;;;;;;18.07;14.00;;;;;;;2.61;67.87;99804.07;516300;1103;116402;-61
2021/05/09 01:50:46;;;;;;;19.37;13.73;;;;;;;2.56;68.23;99824.09;521367;1104;115760;-61
2021/05/09 02:00:51;;;;;;;17.57;14.17;;;;;;;2.58;68.50;99816.27;521865;1103;117313;-62
2021/05/09 02:10:55;;;;;;;16.27;13.90;;;;;;;2.70;68.11;99795.17;529276;1104;116233;-62
2021/05/09 02:21:01;;;;;;;22.10;14.57;;;;;;;2.75;68.29;99813.20;529245;1104;116243;-62
2021/05/09 02:31:05;;;;;;;17.53;13.57;;;;;;;2.74;68.32;99814.09;515742;1104;116094;-60
2021/05/09 02:41:10;;;;;;;19.93;14.40;;;;;;;2.85;68.38;99806.86;515801;1104;115874;-63
2021/05/09 02:51:14;;;;;;;19.87;13.50;;;;;;;2.99;68.22;99800.42;529365;1104;116243;-62
2021/05/09 03:01:19;;;;;;;15.53;12.80;;;;;;;3.25;67.87;99804.00;523354;1104;117168;-63
2021/05/09 03:11:28;;;;;;;14.63;11.27;;;;;;;3.45;67.53;99798.19;526745;1104;115698;-63
2021/05/09 03:21:32;;;;;;;13.77;10.90;;;;;;;3.62;67.10;99785.50;529350;1104;116214;-62
2021/05/09 03:31:36;;;;;;;13.28;9.93;;;;;;;3.81;67.08;99777.13;528543;1104;116326;-62
2021/05/09 03:41:41;;;;;;;13.67;10.23;;;;;;;4.00;66.70;99784.31;529355;1104;115991;-62
2021/05/09 03:51:46;;;;;;;11.57;9.40;;;;;;;4.29;65.95;99785.05;528561;1104;116602;-63
2021/05/09 04:01:50;;;;;;;16.93;9.73;;;;;;;4.96;65.19;99780.91;529278;1104;116637;-62
2021/05/09 04:11:55;;;;;;;10.40;9.20;;;;;;;5.71;64.17;99788.41;515703;1104;116708;-62
2021/05/09 04:21:59;;;;;;;12.63;10.63;;;;;;;6.22;63.40;99767.25;516688;1104;116085;-65
2021/05/09 04:32:05;;;;;;;10.97;9.23;;;;;;;6.71;61.95;99754.63;529342;1104;117020;-62
2021/05/09 04:42:09;;;;;;;13.77;9.37;;;;;;;6.56;61.45;99753.55;529343;1104;116354;-62
2021/05/09 04:52:14;;;;;;;9.33;8.23;;;;;;;11.58;60.18;99756.01;528588;1104;116330;-63
2021/05/09 05:02:18;;;;;;;9.43;7.33;;;;;;;19.86;49.95;99736.70;529362;1104;116366;-63
2021/05/09 05:12:24;;;;;;;9.05;7.80;;;;;;;24.38;41.79;99733.76;514699;1096;115894;-62
2021/05/09 05:22:29;;;;;;;8.27;7.57;;;;;;;27.88;36.26;99727.19;528169;1104;116688;-62
2021/05/09 05:32:34;;;;;;;7.90;7.20;;;;;;;30.50;30.75;99713.93;529195;1104;117076;-62
2021/05/09 05:42:39;;;;;;;7.93;7.13;;;;;;;31.29;28.29;99721.22;529205;1104;116675;-63
2021/05/09 05:52:43;;;;;;;;;;;;;;;33.66;25.54;99717.36;529227;1104;116550;-63
2021/05/09 06:02:47;;;;;;;7.53;6.93;;;;;;;34.32;24.01;99710.38;529684;1104;101724;-64
2021/05/09 06:12:53;;;;;;;8.33;6.80;;;;;;;34.27;22.82;99705.69;524376;1104;116102;-62
2021/05/09 06:22:59;;;;;;;7.75;6.95;;;;;;;32.90;21.80;99689.39;521488;1104;117252;-63
2021/05/09 06:33:03;;;;;;;6.40;5.80;;;;;;;35.53;21.44;99703.13;529196;1104;117319;-63
2021/05/09 06:43:08;;;;;;;6.13;5.60;;;;;;;37.61;18.57;99688.20;525829;1096;116218;-64
2021/05/09 06:53:12;;;;;;;5.37;4.93;;;;;;;36.91;18.80;99684.89;513110;1104;116597;-64
2021/05/09 07:03:18;;;;;;;6.03;5.00;;;;;;;32.03;18.33;99688.48;520965;1096;115691;-63
2021/05/09 07:13:23;;;;;;;6.70;6.00;;;;;;;31.79;20.24;99675.74;517395;1104;178787;-62
2021/05/09 07:23:28;;;;;;;6.10;4.83;;;;;;;35.18;18.40;99658.92;517776;1104;116113;-63
2021/05/09 07:33:33;;;;;;;5.20;4.73;;;;;;;30.72;19.00;99678.25;515980;1096;115630;-69
2021/05/09 07:43:38;;;;;;;6.98;5.95;;;;;;;26.22;22.16;99677.07;514563;1104;115741;-62
2021/05/09 07:53:43;;;;;;;5.43;4.93;;;;;;;27.16;22.88;99655.83;512537;1096;115713;-67
2021/05/09 08:03:47;;;;;;;6.27;4.90;;;;;;;27.85;22.09;99643.98;511904;1099;116185;-68
2021/05/09 08:13:52;;;;;;;5.93;5.33;;;;;;;24.74;23.97;99639.86;513863;1104;116049;-65
2021/05/09 08:23:57;;;;;;;4.63;4.10;;;;;;;22.59;25.67;99631.23;512892;1104;116816;-62
2021/05/09 08:34:02;;;;;;;4.10;3.70;;;;;;;21.75;26.88;99643.23;518115;1104;115876;-62
2021/05/09 08:44:09;;;;;;;5.55;3.80;;;;;;;20.59;27.95;99630.59;514080;1096;115478;-64
2021/05/09 08:54:14;;;;;;;5.40;3.80;;;;;;;20.60;29.28;99632.27;529224;1104;116355;-64
2021/05/09 09:04:19;;;;;;;3.27;2.97;;;;;;;20.08;29.33;99631.43;523442;1104;115844;-64
2021/05/09 09:14:26;;;;;;;2.90;2.70;;;;;;;19.94;29.77;99624.04;520286;1104;115593;-63
2021/05/09 09:24:30;;;;;;;2.40;2.20;;;;;;;19.97;30.48;99619.23;495534;1098;10001890;-65
2021/05/09 09:34:39;;;;;;;2.60;2.40;;;;;;;19.83;29.61;99622.44;513114;1104;117635;-69
2021/05/09 09:44:44;;;;;;;2.77;2.40;;;;;;;19.17;30.62;99621.01;521563;1104;116626;-64
2021/05/09 09:54:49;;;;;;;5.05;3.75;;;;;;;19.15;30.77;99627.47;510898;1104;116138;-62
2021/05/09 10:04:54;;;;;;;3.77;2.30;;;;;;;18.76;31.40;99617.94;511978;1104;116208;-62
2021/05/09 10:14:58;;;;;;;3.33;2.23;;;;;;;18.80;32.33;99603.33;514503;1104;115831;-62
2021/05/09 10:25:05;;;;;;;2.65;2.45;;;;;;;18.67;32.28;99600.22;513944;1100;115968;-62
2021/05/09 10:35:10;;;;;;;3.10;2.10;;;;;;;18.66;31.73;99588.76;524875;1104;115880;-64
2021/05/09 10:45:28;;;;;;;2.63;1.60;;;;;;;18.78;31.08;99586.70;529356;1104;115643;-64
2021/05/09 10:55:45;;;;;;;3.13;1.90;;;;;;;18.62;30.94;99579.39;528499;1104;118343;-64
2021/05/09 11:06:06;;;;;;;2.73;1.63;;;;;;;18.43;30.86;99573.23;514645;1104;116782;-63
2021/05/09 11:16:20;;;;;;;2.30;2.10;;;;;;;18.64;31.02;99558.80;516916;1104;116269;-64
2021/05/09 11:26:27;;;;;;;2.63;2.17;;;;;;;18.70;31.22;99558.20;529249;1104;116639;-65
2021/05/09 11:36:33;;;;;;;2.57;1.60;;;;;;;18.76;31.22;99535.48;517846;1100;116021;-64
2021/05/09 11:46:37;;;;;;;2.73;1.80;;;;;;;19.00;30.71;99542.02;528345;1104;116856;-65
2021/05/09 11:56:54;;;;;;;3.17;2.00;;;;;;;19.29;30.91;99525.76;519534;1104;116205;-65
2021/05/09 12:07:01;;;;;;;2.30;1.95;;;;;;;19.24;30.36;99514.77;514947;1096;115403;-63
2021/05/09 12:17:19;;;;;;;3.07;2.00;;;;;;;19.37;31.11;99508.17;524675;1100;116304;-65
2021/05/09 12:27:23;;;;;;;;;;;;;;;19.49;30.48;99512.23;529269;1104;116005;-65
2021/05/09 12:37:30;;;;;;;1.60;1.50;;;;;;;19.58;30.68;99484.66;520552;1104;102504;-64
2021/05/09 12:47:34;;;;;;;2.83;2.47;;;;;;;19.70;31.06;99484.38;529299;1103;116053;-64
2021/05/09 12:57:38;;;;;;;2.50;2.13;;;;;;;19.85;31.15;99482.75;529327;1104;115937;-64
2021/05/09 13:07:44;;;;;;;3.60;2.03;;;;;;;19.84;31.54;99464.25;518046;1104;116949;-64
2021/05/09 13:17:49;;;;;;;2.00;1.70;;;;;;;19.94;31.29;99467.65;524481;1100;116614;-64
2021/05/09 13:27:56;;;;;;;2.05;1.63;;;;;;;20.13;31.01;99434.53;519622;1103;10001341;-64
2021/05/09 13:38:01;;;;;;;2.10;1.45;;;;;;;20.07;30.60;99424.55;520578;1098;117493;-63
2021/05/09 13:48:08;;;;;;;3.80;2.07;;;;;;;20.21;30.80;99416.90;522490;1104;116441;-64
2021/05/09 13:58:14;;;;;;;2.00;1.77;;;;;;;20.20;30.91;99405.42;519606;1096;116431;-64
2021/05/09 14:08:19;;;;;;;2.60;1.77;;;;;;;20.39;31.46;99392.73;521313;1096;116310;-64
2021/05/09 14:18:23;;;;;;;1.40;1.23;;;;;;;20.50;31.51;99381.73;511576;1096;116302;-63
2021/05/09 14:28:28;;;;;;;1.57;1.47;;;;;;;20.55;31.10;99376.74;512114;1104;115799;-63
2021/05/09 14:38:32;;;;;;;1.33;1.00;;;;;;;20.59;31.33;99363.88;520160;1104;116098;-64
2021/05/09 14:48:37;;;;;;;1.67;1.43;;;;;;;20.67;31.28;99357.72;515126;1096;116248;-63
2021/05/09 14:58:42;;;;;;;1.30;0.93;;;;;;;20.83;31.52;99346.17;529095;1104;116223;-64
2021/05/09 15:08:47;;;;;;;2.45;1.45;;;;;;;21.05;32.03;99338.44;526311;1104;117303;-62
2021/05/09 15:18:51;;;;;;;3.05;2.40;;;;;;;21.13;31.43;99339.26;512177;1104;116003;-63
2021/05/09 15:28:58;;;;;;;1.37;1.20;;;;;;;21.25;31.57;99328.19;511888;1104;116375;-63
2021/05/09 15:39:03;;;;;;;;;;;;;;;21.22;31.91;99323.18;529271;1104;116808;-62
2021/05/09 15:49:08;;;;;;;1.77;1.00;;;;;;;21.20;31.63;99309.18;519880;1104;10001849;-65
2021/05/09 15:59:13;;;;;;;2.93;1.60;;;;;;;21.10;32.15;99304.88;519397;1104;117534;-64
2021/05/09 16:09:17;;;;;;;3.60;1.80;;;;;;;21.04;32.18;99296.74;516147;1104;115767;-69
2021/05/09 16:19:22;;;;;;;4.20;2.40;;;;;;;20.95;32.14;99301.29;522554;1104;116320;-66
2021/05/09 16:29:30;;;;;;;2.00;1.17;;;;;;;20.85;32.43;99282.83;526326;1099;116560;-66
2021/05/09 16:39:34;;;;;;;2.40;1.30;;;;;;;20.76;32.75;99281.97;526454;1104;115905;-67
2021/05/09 16:49:39;;;;;;;1.90;1.63;;;;;;;20.73;32.95;99279.66;524353;1103;117003;-67
2021/05/09 16:59:43;;;;;;;1.00;0.80;;;;;;;21.55;32.34;99277.59;527380;1103;116311;-66
2021/05/09 17:09:48;;;;;;;2.10;0.93;;;;;;;20.88;32.46;99273.63;523559;1099;115746;-66
2021/05/09 17:19:54;;;;;;;1.10;1.00;;;;;;;20.41;32.79;99278.75;529355;1104;116260;-67
2021/05/09 17:29:59;;;;;;;2.07;0.90;;;;;;;20.00;33.30;99274.30;529344;1104;115983;-67
2021/05/09 17:40:04;;;;;;;2.70;1.23;;;;;;;19.54;34.14;99286.24;528586;1104;116153;-68
2021/05/09 17:50:10;;;;;;;2.93;1.60;;;;;;;19.09;35.01;99277.67;518476;1104;116083;-66
2021/05/09 18:00:17;;;;;;;3.20;1.70;;;;;;;18.59;35.52;99271.27;522087;1104;116173;-66
2021/05/09 18:10:22;;;;;;;4.63;2.60;;;;;;;18.12;36.49;99283.95;528552;1104;116231;-67
2021/05/09 18:20:40;;;;;;;10.73;4.93;;;;;;;17.70;37.44;99289.88;521234;1104;117255;-69
2021/05/09 18:30:45;;;;;;;6.87;4.63;;;;;;;17.25;38.22;99308.33;521616;1104;117192;-69
2021/05/09 18:40:49;;;;;;;6.20;5.60;;;;;;;16.81;39.53;99320.39;511365;1104;20001266;-66
2021/05/09 18:51:00;;;;;;;10.30;4.80;;;;;;;16.32;41.10;99325.83;529216;1104;117045;-66
2021/05/09 19:01:04;;;;;;;9.03;5.03;;;;;;;15.96;42.52;99336.18;517291;1104;116856;-66
2021/05/09 19:11:09;;;;;;;7.43;5.03;;;;;;;15.67;43.78;99350.19;514037;1104;115566;-66
2021/05/09 19:21:14;;;;;;;9.77;4.87;;;;;;;15.50;44.75;99352.54;512124;1098;116431;-67
2021/05/09 19:31:19;;;;;;;15.37;6.53;;;;;;;15.31;45.58;99352.48;528404;1103;116412;-66
2021/05/09 19:41:24;;;;;;;4.95;3.90;;;;;;;15.09;46.10;99349.92;521595;1104;116590;-66
2021/05/09 19:51:28;;;;;;;7.40;4.80;;;;;;;14.95;46.73;99350.29;527156;1104;116671;-66
2021/05/09 20:01:33;;;;;;;7.53;5.53;;;;;;;14.74;47.38;99340.59;514089;1104;116154;-66
2021/05/09 20:11:40;;;;;;;7.73;5.60;;;;;;;14.53;47.74;99349.34;527510;1096;116869;-66
2021/05/09 20:21:45;;;;;;;7.50;5.15;;;;;;;14.33;48.20;99343.10;510917;1104;116074;-66
2021/05/09 20:31:50;;;;;;;8.00;6.00;;;;;;;14.10;48.33;99348.50;516577;1104;116451;-66
2021/05/09 20:41:55;;;;;;;7.03;5.63;;;;;;;13.86;48.59;99356.63;529143;1104;116108;-65
2021/05/09 20:52:00;;;;;;;7.47;6.27;;;;;;;13.64;49.03;99379.47;522271;1096;116263;-67
2021/05/09 21:02:04;;;;;;;9.47;6.83;;;;;;;13.47;49.26;99380.00;529214;1104;116678;-67
2021/05/09 21:12:11;;;;;;;10.60;6.93;;;;;;;13.31;49.36;99365.34;519633;1104;117094;-64
2021/05/09 21:22:15;;;;;;;10.10;6.30;;;;;;;13.11;49.78;99366.92;528499;1104;116402;-67
2021/05/09 21:32:21;;;;;;;6.00;4.60;;;;;;;12.97;50.18;99375.90;524078;1104;116497;-67
2021/05/09 21:42:26;;;;;;;7.90;4.95;;;;;;;12.77;50.34;99367.76;519691;1100;115935;-66
2021/05/09 21:52:30;;;;;;;5.63;4.80;;;;;;;12.52;50.81;99376.69;528150;1103;116447;-67
2021/05/09 22:02:35;;;;;;;8.03;5.70;;;;;;;12.30;51.32;99370.40;521304;1104;115886;-67
2021/05/09 22:12:39;;;;;;;6.77;5.33;;;;;;;12.10;51.57;99385.88;524472;1104;115517;-67
2021/05/09 22:22:49;;;;;;;8.53;5.20;;;;;;;11.92;52.12;99380.14;529339;1104;116314;-67
2021/05/09 22:32:54;;;;;;;7.25;4.00;;;;;;;11.81;52.45;99386.20;524116;1104;116087;-67
2021/05/09 22:42:58;;;;;;;6.30;4.27;;;;;;;11.71;52.67;99380.75;513276;1104;116378;-66
2021/05/09 22:53:03;;;;;;;5.00;4.50;;;;;;;11.59;53.04;99381.63;519594;1104;115819;-67
2021/05/09 23:03:07;;;;;;;5.70;3.67;;;;;;;11.42;53.33;99380.20;523056;1104;116926;-66
2021/05/09 23:13:12;;;;;;;6.98;4.03;;;;;;;11.18;53.88;99365.23;512332;1104;116141;-67
2021/05/09 23:23:16;;;;;;;6.47;4.40;;;;;;;10.97;54.28;99370.20;514014;1104;115771;-67
2021/05/09 23:33:21;;;;;;;6.30;4.37;;;;;;;10.75;54.69;99364.66;512638;1096;117134;-66
2021/05/09 23:43:26;;;;;;;5.20;4.00;;;;;;;10.64;55.00;99365.37;522846;1104;116413;-66
2021/05/09 23:53:30;;;;;;;5.13;4.53;;;;;;;10.45;55.38;99363.16;529249;1104;117091;-67
